Time;durP1;ratioP1;P1;durP2;ratioP2;P2;SDS_P1;SDS_P2;PMS_P1;PMS_P2;Temp;Humidity;BMP_temperature;BMP_pressure;BME280_temperature;BME280_humidity;BME280_pressure;Samples;Min_cycle;Max_cycle;Signal;HPM_P1;HPM_P2
2021/08/18 00:01:33;;;;;;;;;5.00;5.00;;;;;19.70;47.61;98672.13;6101326;28;98263;-59
2021/08/18 00:04:38;;;;;;;;;6.20;5.00;;;;;19.54;47.74;98673.34;6089446;28;96516;-59
2021/08/18 00:07:41;;;;;;;;;5.00;5.00;;;;;19.53;47.39;98675.28;6086267;28;97890;-59
2021/08/18 00:10:45;;;;;;;;;6.00;6.00;;;;;19.48;47.66;98679.97;6091914;28;97559;-57
2021/08/18 00:13:51;;;;;;;;;5.50;5.00;;;;;19.55;47.72;98678.53;6097301;28;97119;-57
2021/08/18 00:16:54;;;;;;;;;5.00;5.00;;;;;19.59;47.37;98682.34;6081319;28;96754;-57
2021/08/18 00:19:59;;;;;;;;;5.00;5.00;;;;;19.54;47.63;98676.09;6090826;28;96507;-60
2021/08/18 00:23:03;;;;;;;;;4.00;4.00;;;;;19.49;47.83;98676.94;6095539;28;96983;-59
2021/08/18 00:26:06;;;;;;;;;5.50;5.00;;;;;19.56;47.55;98677.44;6099746;28;96655;-59
2021/08/18 00:29:09;;;;;;;;;6.00;6.00;;;;;19.58;47.77;98679.88;6101088;28;96522;-57
2021/08/18 00:32:13;;;;;;;;;5.00;5.00;;;;;19.61;47.87;98684.78;6075618;28;97575;-60
2021/08/18 00:35:18;;;;;;;;;6.00;6.00;;;;;19.61;48.18;98682.84;6097943;28;96707;-57
2021/08/18 00:38:21;;;;;;;;;6.00;5.00;;;;;19.69;47.68;98686.91;6098302;28;98791;-60
2021/08/18 00:41:24;;;;;;;;;7.00;6.00;;;;;19.67;47.69;98675.44;6095146;28;96519;-58
2021/08/18 00:44:27;;;;;;;;;4.00;4.00;;;;;19.69;47.56;98675.97;6094625;28;97631;-60
2021/08/18 00:47:31;;;;;;;;;6.50;6.00;;;;;19.71;47.47;98673.75;6080774;28;96497;-58
2021/08/18 00:50:36;;;;;;;;;7.00;6.00;;;;;19.69;47.33;98679.53;6098179;28;96934;-60
2021/08/18 00:53:39;;;;;;;;;7.40;7.00;;;;;19.73;47.28;98683.31;6099484;28;97705;-58
2021/08/18 00:56:42;;;;;;;;;5.00;4.00;;;;;19.71;46.93;98677.31;6095658;28;96570;-60
2021/08/18 00:59:46;;;;;;;;;5.00;5.00;;;;;19.75;47.31;98681.09;6095974;28;98169;-60
2021/08/18 01:02:49;;;;;;;;;4.80;4.00;;;;;19.78;47.12;98672.34;6102831;28;96531;-59
2021/08/18 01:05:55;;;;;;;;;4.60;4.40;;;;;19.82;47.25;98667.94;6096716;28;97471;-60
2021/08/18 01:09:00;;;;;;;;;4.00;4.00;;;;;19.84;47.06;98675.84;6098369;28;96979;-59
2021/08/18 01:12:04;;;;;;;;;4.00;4.00;;;;;19.86;46.93;98677.19;6098936;28;98010;-58
2021/08/18 01:15:11;;;;;;;;;4.40;4.40;;;;;19.90;46.93;98670.03;6099251;28;96964;-60
2021/08/18 01:18:14;;;;;;;;;8.00;7.00;;;;;19.96;46.85;98675.47;6105740;28;99823;-60
2021/08/18 01:21:19;;;;;;;;;5.00;5.00;;;;;19.98;46.87;98674.09;6103109;28;96982;-60
2021/08/18 01:24:22;;;;;;;;;5.00;4.40;;;;;20.03;46.81;98675.94;6089111;28;96556;-58
2021/08/18 01:27:26;;;;;;;;;6.00;5.00;;;;;20.03;46.70;98679.50;6103502;28;97186;-60
2021/08/18 01:30:34;;;;;;;;;5.20;5.00;;;;;20.04;46.29;98677.56;6102006;28;96715;-58
2021/08/18 01:33:37;;;;;;;;;4.00;3.40;;;;;19.96;46.47;98680.94;6103396;28;97997;-57
2021/08/18 01:36:40;;;;;;;;;5.00;4.80;;;;;20.07;46.12;98674.25;6094430;28;96530;-60
2021/08/18 01:39:44;;;;;;;;;5.60;5.00;;;;;20.06;45.94;98673.44;6097610;28;97587;-59
2021/08/18 01:42:48;;;;;;;;;5.00;5.00;;;;;20.10;45.94;98668.19;6092067;28;97283;-59
2021/08/18 01:45:54;;;;;;;;;5.00;5.00;;;;;20.11;45.82;98665.19;6105007;28;97808;-61
2021/08/18 01:48:58;;;;;;;;;6.00;6.00;;;;;20.14;46.09;98661.88;6093325;28;97390;-59
2021/08/18 01:52:01;;;;;;;;;6.60;6.00;;;;;20.10;46.53;98660.00;6101551;28;97562;-61
2021/08/18 01:55:05;;;;;;;;;5.80;5.00;;;;;20.17;46.13;98663.22;6110490;28;97406;-61
2021/08/18 01:58:09;;;;;;;;;7.00;6.00;;;;;20.16;46.38;98659.66;6108604;28;97507;-59
2021/08/18 02:01:15;;;;;;;;;6.00;5.00;;;;;20.17;46.37;98660.47;6109033;28;96765;-58
2021/08/18 02:04:19;;;;;;;;;4.00;4.00;;;;;20.20;46.60;98655.25;6087291;28;97178;-61
2021/08/18 02:07:22;;;;;;;;;6.00;5.00;;;;;20.10;46.82;98632.63;6093576;28;96546;-60
2021/08/18 02:10:27;;;;;;;;;5.00;4.40;;;;;20.12;46.48;98650.41;6093456;28;98061;-59
2021/08/18 02:13:31;;;;;;;;;4.00;4.00;;;;;20.24;46.35;98666.41;6066970;28;99808;-59
2021/08/18 02:16:36;;;;;;;;;7.00;5.00;;;;;20.21;46.15;98669.75;6078430;28;97827;-60
2021/08/18 02:19:39;;;;;;;;;5.60;5.00;;;;;20.15;46.49;98662.69;6099058;28;97080;-61
2021/08/18 02:22:43;;;;;;;;;4.00;4.00;;;;;20.12;46.42;98658.63;6087978;28;96608;-61
2021/08/18 02:25:47;;;;;;;;;5.00;5.00;;;;;20.12;46.39;98661.34;6108504;28;97443;-59
2021/08/18 02:28:50;;;;;;;;;6.00;5.00;;;;;20.14;46.48;98653.66;6093346;28;97480;-60
2021/08/18 02:31:55;;;;;;;;;5.00;5.00;;;;;20.04;46.19;98634.59;6078415;28;97251;-58
2021/08/18 02:34:58;;;;;;;;;6.00;6.00;;;;;20.12;46.12;98646.84;6097048;28;97427;-60
2021/08/18 02:38:04;;;;;;;;;5.60;5.20;;;;;20.11;46.47;98642.47;6099523;28;97130;-62
2021/08/18 02:41:07;;;;;;;;;5.00;5.00;;;;;20.12;46.38;98649.59;6103614;28;97533;-60
2021/08/18 02:44:10;;;;;;;;;4.80;4.20;;;;;20.12;46.35;98655.06;6090029;28;97799;-62
2021/08/18 02:47:15;;;;;;;;;5.00;4.40;;;;;20.15;46.49;98662.69;6113912;28;97501;-60
2021/08/18 02:50:20;;;;;;;;;5.80;5.00;;;;;20.12;47.40;98668.75;6101760;28;97684;-60
2021/08/18 02:53:23;;;;;;;;;6.80;6.00;;;;;20.08;47.16;98670.44;6090915;28;98125;-62
2021/08/18 02:56:27;;;;;;;;;5.00;4.75;;;;;20.05;47.16;98673.72;6100734;28;97341;-60
2021/08/18 02:59:30;;;;;;;;;5.00;5.00;;;;;19.95;47.62;98673.81;6101810;28;97612;-59
2021/08/18 03:02:35;;;;;;;;;5.00;4.40;;;;;20.00;47.60;98691.00;6105561;28;97177;-60
2021/08/18 03:05:38;;;;;;;;;4.00;4.00;;;;;19.98;47.40;98687.75;6099036;28;97539;-59
2021/08/18 03:08:42;;;;;;;;;5.00;5.00;;;;;19.96;47.45;98692.69;6105454;28;97320;-61
2021/08/18 03:11:45;;;;;;;;;5.00;5.00;;;;;19.99;47.48;98705.78;6084767;28;97502;-59
2021/08/18 03:14:48;;;;;;;;;5.25;5.25;;;;;19.94;47.17;98700.34;6092774;28;96801;-59
2021/08/18 03:17:53;;;;;;;;;3.60;3.60;;;;;19.92;46.81;98690.81;6091170;28;98586;-61
2021/08/18 03:20:57;;;;;;;;;4.00;4.00;;;;;19.94;46.81;98694.09;6090262;28;97172;-60
2021/08/18 03:24:01;;;;;;;;;4.60;4.00;;;;;19.91;46.71;98692.75;6089528;28;96602;-62
2021/08/18 03:27:05;;;;;;;;;6.00;4.25;;;;;19.95;46.42;98695.72;6089764;28;96718;-61
2021/08/18 03:30:10;;;;;;;;;5.40;5.00;;;;;19.89;46.60;98690.28;6088285;28;97202;-60
2021/08/18 03:33:15;;;;;;;;;5.80;4.80;;;;;19.80;46.49;98689.28;6100411;28;96836;-61
2021/08/18 03:36:18;;;;;;;;;3.20;3.20;;;;;19.76;46.40;98685.47;6083646;28;100360;-62
2021/08/18 03:39:22;;;;;;;;;4.00;4.00;;;;;19.74;46.77;98684.94;6106579;28;96736;-60
2021/08/18 03:42:26;;;;;;;;;4.80;4.00;;;;;19.76;46.52;98677.28;6097282;28;98845;-60
2021/08/18 03:45:29;;;;;;;;;6.60;6.00;;;;;19.78;46.33;98680.53;6099743;28;97363;-61
2021/08/18 03:48:34;;;;;;;;;5.00;4.00;;;;;19.80;46.30;98678.31;6097673;28;96631;-59
2021/08/18 03:51:37;;;;;;;;;4.00;4.00;;;;;19.80;46.03;98681.06;6077514;28;97009;-57
2021/08/18 03:54:41;;;;;;;;;5.50;5.00;;;;;19.86;46.34;98684.56;6081616;28;97634;-59
2021/08/18 03:57:44;;;;;;;;;5.80;5.80;;;;;19.88;46.31;98680.47;6084143;28;96816;-60
2021/08/18 04:00:47;;;;;;;;;5.00;5.00;;;;;19.94;46.02;98681.22;6102948;28;97052;-61
2021/08/18 04:03:52;;;;;;;;;7.00;6.00;;;;;19.96;46.29;98681.75;6095991;28;96715;-60
2021/08/18 04:06:55;;;;;;;;;5.00;4.00;;;;;19.99;45.87;98689.38;6085577;28;96797;-59
2021/08/18 04:09:58;;;;;;;;;5.60;4.00;;;;;20.04;45.59;98688.50;6101137;28;97443;-60
2021/08/18 04:13:02;;;;;;;;;5.00;5.00;;;;;19.95;45.42;98685.59;6094964;28;97096;-62
2021/08/18 04:16:06;;;;;;;;;5.00;4.00;;;;;19.98;45.35;98687.75;6091682;28;98191;-60
2021/08/18 04:19:10;;;;;;;;;5.00;5.00;;;;;19.96;45.26;98689.13;6090251;28;96473;-62
2021/08/18 04:22:14;;;;;;;;;6.00;5.00;;;;;19.90;45.19;98689.19;6098524;28;97571;-61
2021/08/18 04:25:18;;;;;;;;;5.00;5.00;;;;;19.86;45.05;98682.66;6108469;28;96757;-60
2021/08/18 04:28:21;;;;;;;;;5.00;5.00;;;;;19.87;45.24;98692.50;6104025;28;96906;-60
2021/08/18 04:31:26;;;;;;;;;4.00;4.00;;;;;19.82;45.26;98678.03;6088263;28;98527;-60
2021/08/18 04:34:30;;;;;;;;;5.00;5.00;;;;;19.79;44.83;98682.16;6083818;28;97403;-59
2021/08/18 04:37:35;;;;;;;;;3.00;3.00;;;;;19.89;45.05;98684.00;6087281;28;97587;-60
2021/08/18 04:40:39;;;;;;;;;4.00;3.40;;;;;20.02;44.62;98686.06;6088727;28;97112;-61
2021/08/18 04:43:42;;;;;;;;;6.40;6.00;;;;;20.05;44.78;98692.88;6084590;28;97521;-59
2021/08/18 04:46:45;;;;;;;;;5.40;4.00;;;;;20.12;44.94;98694.19;6082423;28;97467;-60
2021/08/18 04:49:50;;;;;;;;;5.00;5.00;;;;;20.07;44.47;98677.81;6082674;28;97808;-59
2021/08/18 04:52:53;;;;;;;;;4.00;4.00;;;;;20.21;44.46;98686.97;6082547;28;97450;-59
2021/08/18 04:55:58;;;;;;;;;5.00;5.00;;;;;20.36;44.10;98685.22;6082574;28;96838;-59
2021/08/18 04:59:01;;;;;;;;;6.00;6.00;;;;;20.42;43.91;98682.16;6082985;28;97207;-57
2021/08/18 05:02:05;;;;;;;;;6.00;6.00;;;;;20.56;43.83;98687.75;6084319;28;98432;-61
2021/08/18 05:05:11;;;;;;;;;7.00;6.00;;;;;20.69;44.03;98696.06;6086741;28;97853;-59
2021/08/18 05:08:14;;;;;;;;;5.00;5.00;;;;;20.84;43.78;98706.03;6089034;28;98664;-60
2021/08/18 05:11:17;;;;;;;;;4.50;4.50;;;;;20.90;43.61;98704.03;6089865;28;96619;-59
2021/08/18 05:14:21;;;;;;;;;4.60;4.60;;;;;21.05;43.92;98709.34;6085974;28;98188;-62
2021/08/18 05:17:24;;;;;;;;;7.40;6.00;;;;;21.12;43.62;98705.09;6088440;28;97466;-59
2021/08/18 05:20:29;;;;;;;;;4.00;4.00;;;;;21.20;43.90;98708.34;6093903;28;97160;-60
2021/08/18 05:23:32;;;;;;;;;6.00;5.00;;;;;21.23;43.89;98708.56;6091854;28;97613;-62
2021/08/18 05:26:36;;;;;;;;;6.00;5.00;;;;;21.25;43.21;98717.31;6092719;28;97207;-61
2021/08/18 05:29:40;;;;;;;;;7.00;5.00;;;;;21.26;43.03;98718.13;6075545;28;96679;-60
2021/08/18 05:32:44;;;;;;;;;7.00;6.25;;;;;21.21;43.26;98719.00;6084581;28;97433;-60
2021/08/18 05:35:49;;;;;;;;;4.50;4.50;;;;;21.24;43.55;98720.34;6092063;28;98822;-60
2021/08/18 05:38:52;;;;;;;;;5.60;5.60;;;;;21.28;44.27;98710.41;6088052;28;96673;-61
2021/08/18 05:41:55;;;;;;;;;7.00;6.00;;;;;21.26;43.79;98718.94;6088517;28;97222;-61
2021/08/18 05:45:00;;;;;;;;;6.00;5.00;;;;;21.31;44.29;98715.28;6075568;28;97984;-60
2021/08/18 06:47:50;;;;;;;;;8.00;8.00;;;;;22.19;42.48;98736.44;6908878;22;97643;-60
2021/08/18 06:50:54;;;;;;;;;8.00;6.00;;;;;22.16;42.26;98718.66;6153787;28;97568;-60
2021/08/18 06:53:57;;;;;;;;;5.00;5.00;;;;;22.18;41.70;98727.41;6131792;28;97550;-60
2021/08/18 06:57:01;;;;;;;;;7.67;7.00;;;;;22.35;40.99;98724.91;6127809;28;97123;-58
2021/08/18 07:00:05;;;;;;;;;7.00;6.00;;;;;22.30;41.03;98711.25;6125735;28;98518;-61
2021/08/18 07:03:10;;;;;;;;;7.00;7.00;;;;;22.46;40.87;98720.03;6121537;28;96801;-58
2021/08/18 07:06:14;;;;;;;;;6.00;6.00;;;;;22.49;40.66;98722.16;6124722;28;97912;-60
2021/08/18 07:09:17;;;;;;;;;8.00;7.00;;;;;22.53;41.04;98722.41;6146528;28;98449;-60
2021/08/18 07:12:20;;;;;;;;;6.00;6.00;;;;;22.45;40.53;98719.22;6155168;28;97452;-61
2021/08/18 07:15:24;;;;;;;;;7.33;7.00;;;;;22.44;40.69;98723.09;6148235;28;97106;-59
2021/08/18 07:18:29;;;;;;;;;8.00;8.00;;;;;22.43;41.25;98718.69;6153802;28;96795;-60
2021/08/18 07:21:33;;;;;;;;;7.00;7.00;;;;;22.45;41.65;98724.72;6145845;28;98472;-60
2021/08/18 07:24:37;;;;;;;;;8.00;7.00;;;;;22.50;41.32;98723.00;6142645;28;97445;-58
2021/08/18 07:27:40;;;;;;;;;8.00;7.00;;;;;22.39;41.11;98723.19;6130996;28;97278;-60
2021/08/18 07:30:43;;;;;;;;;7.80;6.80;;;;;22.41;41.42;98731.13;6147707;28;96851;-59
2021/08/18 07:33:48;;;;;;;;;8.00;7.50;;;;;22.29;41.48;98734.34;6156519;28;97619;-60
2021/08/18 07:36:51;;;;;;;;;7.20;7.00;;;;;22.36;41.56;98733.97;6147484;28;97453;-60
2021/08/18 07:39:55;;;;;;;;;6.00;6.00;;;;;22.32;41.57;98725.53;6146007;28;98030;-59
2021/08/18 07:42:59;;;;;;;;;10.00;9.40;;;;;22.38;42.01;98734.50;6128697;28;97937;-58
2021/08/18 07:46:03;;;;;;;;;7.00;6.00;;;;;22.43;41.91;98735.19;6148140;28;97418;-59
2021/08/18 07:49:07;;;;;;;;;9.00;8.00;;;;;22.37;41.75;98730.09;6148291;28;97559;-60
2021/08/18 07:52:11;;;;;;;;;6.00;5.00;;;;;22.48;41.71;98728.78;6147474;28;97814;-59
2021/08/18 07:55:14;;;;;;;;;7.00;7.00;;;;;22.62;41.75;98734.31;6146974;28;96724;-60
2021/08/18 07:58:17;;;;;;;;;7.60;7.00;;;;;22.67;41.44;98735.03;6149571;28;97200;-59
2021/08/18 08:01:20;;;;;;;;;7.00;6.00;;;;;22.76;41.24;98735.16;6150357;28;97430;-60
2021/08/18 08:04:26;;;;;;;;;8.00;7.80;;;;;22.88;41.08;98730.78;6151065;28;96667;-60
2021/08/18 08:07:29;;;;;;;;;6.20;6.20;;;;;23.06;41.17;98731.00;6150011;28;96602;-58
2021/08/18 08:10:33;;;;;;;;;9.80;7.80;;;;;23.12;40.81;98733.31;6152370;28;97874;-60
2021/08/18 08:13:36;;;;;;;;;9.00;8.40;;;;;23.19;39.92;98730.16;6149152;28;97144;-61
2021/08/18 08:16:40;;;;;;;;;10.40;9.00;;;;;23.32;40.51;98723.81;6151944;28;96939;-60
2021/08/18 08:19:45;;;;;;;;;7.20;7.00;;;;;23.29;39.47;98716.19;6155557;28;96716;-59
2021/08/18 08:22:48;;;;;;;;;9.25;8.25;;;;;23.38;39.36;98719.81;6126743;28;96938;-59
2021/08/18 08:25:52;;;;;;;;;10.00;9.00;;;;;23.43;39.24;98716.13;6112543;28;97846;-59
2021/08/18 08:28:56;;;;;;;;;7.40;7.00;;;;;23.61;39.16;98713.25;6148737;28;98711;-61
2021/08/18 08:31:59;;;;;;;;;7.25;6.00;;;;;23.59;38.41;98712.78;6152000;28;97531;-60
2021/08/18 08:35:04;;;;;;;;;8.00;7.00;;;;;23.60;38.97;98710.84;6147844;28;98144;-61
2021/08/18 08:38:08;;;;;;;;;7.80;7.40;;;;;23.71;38.16;98687.44;6138857;28;97427;-60
2021/08/18 08:41:11;;;;;;;;;7.40;7.40;;;;;24.01;37.90;98697.69;6155423;28;96475;-58
2021/08/18 08:44:17;;;;;;;;;8.00;8.00;;;;;24.09;37.34;98705.19;6150058;28;98307;-61
2021/08/18 08:47:21;;;;;;;;;9.20;7.80;;;;;24.42;37.88;98705.75;6153081;28;97481;-58
2021/08/18 08:50:27;;;;;;;;;9.00;8.00;;;;;24.60;36.82;98695.59;6143102;28;96781;-58
2021/08/18 08:53:30;;;;;;;;;9.00;8.00;;;;;24.99;36.35;98697.56;6155898;28;98439;-60
2021/08/18 08:56:34;;;;;;;;;10.00;9.00;;;;;25.29;36.78;98693.88;6149105;28;97363;-60
2021/08/18 08:59:39;;;;;;;;;10.00;9.00;;;;;25.55;36.12;98690.38;6120804;28;100180;-60
2021/08/18 09:02:42;;;;;;;;;9.00;7.20;;;;;25.79;34.94;98685.16;6151048;28;97596;-60
2021/08/18 09:05:47;;;;;;;;;9.40;8.00;;;;;26.05;35.14;98683.16;6127337;28;97827;-59
2021/08/18 09:08:52;;;;;;;;;9.00;9.00;;;;;26.23;35.15;98695.03;6141014;28;96659;-60
2021/08/18 09:12:03;;;;;;;;;9.00;8.00;;;;;26.53;33.61;98682.91;6162773;28;97450;-60
2021/08/18 09:15:17;;;;;;;;;9.00;9.00;;;;;26.79;33.38;98693.84;6163735;28;97523;-58
2021/08/18 09:18:35;;;;;;;;;10.25;8.00;;;;;26.88;32.91;98691.88;6165947;28;97119;-60
2021/08/18 09:21:42;;;;;;;;;10.60;9.00;;;;;27.19;32.79;98690.72;6164833;28;97578;-61
2021/08/18 09:24:46;;;;;;;;;11.60;9.00;;;;;27.15;32.76;98685.06;6152485;28;97302;-60
2021/08/18 09:27:53;;;;;;;;;11.00;9.00;;;;;27.24;33.21;98682.22;6164305;28;96472;-59
2021/08/18 09:30:58;;;;;;;;;10.00;9.75;;;;;27.03;32.11;98680.25;6156860;28;97437;-59
2021/08/18 09:34:03;;;;;;;;;11.00;10.00;;;;;26.76;32.98;98690.94;6159080;28;97221;-60
2021/08/18 09:37:12;;;;;;;;;10.00;9.00;;;;;26.51;32.83;98676.09;6151103;28;97490;-61
2021/08/18 09:40:17;;;;;;;;;10.00;9.00;;;;;26.28;33.90;98670.00;6161429;28;97113;-60
2021/08/18 09:43:24;;;;;;;;;12.60;11.00;;;;;26.09;34.12;98675.88;6161371;28;96757;-60
2021/08/18 09:46:29;;;;;;;;;10.60;10.00;;;;;25.94;33.85;98681.09;6164212;28;96871;-61
2021/08/18 09:49:33;;;;;;;;;11.50;9.50;;;;;26.00;34.29;98679.78;6164392;28;97068;-61
2021/08/18 09:52:38;;;;;;;;;10.40;10.40;;;;;26.19;34.68;98683.78;6153996;28;97562;-61
2021/08/18 09:55:50;;;;;;;;;12.00;12.00;;;;;26.45;33.38;98682.94;6154110;28;97413;-58
2021/08/18 09:58:55;;;;;;;;;13.00;11.40;;;;;26.74;33.45;98674.66;6149863;28;97536;-60
2021/08/18 10:01:59;;;;;;;;;11.40;11.00;;;;;26.99;32.68;98678.47;6154907;28;97446;-59
2021/08/18 10:05:04;;;;;;;;;14.60;11.00;;;;;27.18;32.26;98678.84;6163592;28;96863;-59
2021/08/18 10:08:11;;;;;;;;;10.20;9.40;;;;;27.53;32.43;98677.47;6159173;28;97552;-60
2021/08/18 10:11:16;;;;;;;;;9.00;8.00;;;;;27.58;31.86;98682.00;6172263;28;97519;-59
2021/08/18 10:14:21;;;;;;;;;13.00;11.00;;;;;27.82;31.11;98675.75;6163161;28;97490;-59
2021/08/18 10:17:25;;;;;;;;;13.50;11.00;;;;;27.98;31.40;98665.66;6155649;28;97389;-58
2021/08/18 10:20:28;;;;;;;;;10.00;8.75;;;;;28.34;30.92;98665.81;6159891;28;97403;-58
2021/08/18 10:23:45;;;;;;;;;9.00;9.00;;;;;28.31;30.01;98663.72;6144969;28;96675;-60
2021/08/18 10:26:53;;;;;;;;;10.00;9.00;;;;;28.58;30.02;98656.72;6148053;28;97228;-58
2021/08/18 10:30:19;;;;;;;;;9.00;9.00;;;;;28.81;30.64;98657.09;6142270;28;96812;-58
2021/08/18 10:33:59;;;;;;;;;11.00;10.00;;;;;28.87;29.34;98660.44;6143664;28;97646;-61
2021/08/18 10:37:06;;;;;;;;;11.80;9.80;;;;;29.04;29.15;98660.19;6148519;28;97104;-61
2021/08/18 10:40:14;;;;;;;;;10.50;8.50;;;;;29.09;29.30;98666.31;6163870;28;97149;-58
2021/08/18 10:43:50;;;;;;;;;9.60;9.00;;;;;29.18;29.16;98657.84;6167707;28;96925;-59
2021/08/18 10:47:20;;;;;;;;;10.50;9.00;;;;;29.10;27.45;98670.72;6144751;28;96665;-61
2021/08/18 10:50:46;;;;;;;;;8.20;8.20;;;;;28.88;26.38;98664.84;6160941;28;96842;-61
2021/08/18 10:53:50;;;;;;;;;11.75;10.00;;;;;28.75;27.86;98666.78;6161066;28;98633;-59
2021/08/18 10:56:57;;;;;;;;;9.00;9.00;;;;;28.91;28.39;98664.13;6159878;28;97401;-61
2021/08/18 11:00:09;;;;;;;;;10.60;10.00;;;;;28.89;28.48;98658.09;6156083;28;98306;-61
2021/08/18 11:03:26;;;;;;;;;8.00;8.00;;;;;29.22;27.47;98654.00;6151646;28;97918;-60
2021/08/18 11:06:53;;;;;;;;;11.00;9.20;;;;;29.07;27.63;98649.22;6161492;28;96614;-61
2021/08/18 11:10:01;;;;;;;;;10.40;9.00;;;;;29.03;27.78;98648.25;6157529;28;97702;-62
2021/08/18 11:13:07;;;;;;;;;9.25;8.25;;;;;28.71;28.80;98641.72;6160733;28;97217;-59
2021/08/18 11:16:13;;;;;;;;;9.00;8.40;;;;;28.79;29.37;98649.09;6151330;28;97234;-60
2021/08/18 11:19:16;;;;;;;;;9.00;9.00;;;;;28.89;28.01;98642.28;6162840;28;97433;-59
2021/08/18 11:22:20;;;;;;;;;10.00;9.50;;;;;28.87;28.33;98641.00;6158445;28;98118;-58
2021/08/18 11:25:25;;;;;;;;;10.00;9.00;;;;;29.00;28.69;98642.59;6153964;28;97453;-58
2021/08/18 11:28:31;;;;;;;;;8.00;7.75;;;;;29.10;29.69;98648.50;6148840;28;97048;-60
2021/08/18 11:31:42;;;;;;;;;8.00;8.00;;;;;29.08;28.45;98636.09;6157529;28;96759;-59
2021/08/18 11:34:50;;;;;;;;;12.00;9.00;;;;;28.85;27.28;98644.94;6148871;28;96763;-59
2021/08/18 11:38:02;;;;;;;;;8.40;7.00;;;;;28.96;26.85;98636.97;6150779;28;96922;-58
2021/08/18 11:41:09;;;;;;;;;8.80;8.40;;;;;28.95;26.97;98637.28;6147665;28;96794;-59
2021/08/18 11:44:29;;;;;;;;;8.60;8.00;;;;;29.05;27.87;98634.84;6161158;28;97453;-59
2021/08/18 11:47:34;;;;;;;;;11.00;9.00;;;;;29.10;27.04;98634.63;6151483;28;96690;-61
2021/08/18 11:50:38;;;;;;;;;9.00;8.00;;;;;29.31;27.37;98631.72;6160655;28;96783;-60
2021/08/18 11:53:52;;;;;;;;;10.00;8.25;;;;;29.34;27.31;98627.41;6162743;28;96935;-60
2021/08/18 11:57:02;;;;;;;;;9.60;8.00;;;;;29.42;26.05;98630.03;6160813;28;97456;-59
2021/08/18 12:00:07;;;;;;;;;12.00;8.40;;;;;29.73;26.99;98632.13;6157627;28;97394;-58
2021/08/18 12:03:11;;;;;;;;;8.25;7.50;;;;;29.86;26.52;98625.34;6153857;28;97935;-58
2021/08/18 12:06:14;;;;;;;;;9.40;9.00;;;;;29.88;27.41;98625.81;6151310;28;96677;-58
2021/08/18 12:09:22;;;;;;;;;10.00;7.00;;;;;29.68;26.52;98622.09;6161148;28;97427;-59
2021/08/18 12:12:26;;;;;;;;;7.00;7.00;;;;;29.85;25.81;98620.16;6151495;28;96620;-58
2021/08/18 12:15:33;;;;;;;;;8.00;6.00;;;;;29.74;25.17;98622.66;6145395;28;97529;-58
2021/08/18 12:18:38;;;;;;;;;8.00;7.60;;;;;30.03;26.03;98621.47;6159836;28;97437;-59
2021/08/18 12:21:42;;;;;;;;;6.00;5.00;;;;;30.18;25.26;98626.25;6159652;28;97362;-60
2021/08/18 12:24:48;;;;;;;;;8.00;7.00;;;;;30.38;25.44;98621.59;6148788;28;96998;-59
2021/08/18 12:28:10;;;;;;;;;7.20;7.20;;;;;30.55;23.90;98613.72;6163664;28;97589;-59
2021/08/18 12:31:14;;;;;;;;;6.50;6.00;;;;;30.50;24.59;98621.53;6167518;28;97610;-58
2021/08/18 12:34:17;;;;;;;;;7.00;5.80;;;;;30.32;24.03;98620.25;6161479;28;96790;-58
2021/08/18 12:37:22;;;;;;;;;9.00;8.00;;;;;30.39;24.71;98612.91;6159253;28;96698;-59
2021/08/18 12:40:27;;;;;;;;;6.75;6.00;;;;;30.51;24.63;98618.41;6149804;28;96997;-59
2021/08/18 12:43:32;;;;;;;;;7.00;6.60;;;;;30.50;24.05;98608.44;6171939;28;97453;-60
2021/08/18 12:46:37;;;;;;;;;5.00;5.00;;;;;30.53;24.56;98601.34;6160011;28;96464;-58
2021/08/18 12:49:49;;;;;;;;;9.00;7.00;;;;;30.57;25.09;98601.44;6139649;28;97316;-59
2021/08/18 12:52:52;;;;;;;;;7.00;6.50;;;;;30.38;23.40;98600.16;6165571;28;98547;-59
2021/08/18 12:55:57;;;;;;;;;5.40;5.40;;;;;29.96;23.76;98604.59;6166373;28;97132;-60
2021/08/18 12:59:01;;;;;;;;;6.00;5.00;;;;;30.05;24.73;98600.50;6154474;28;97553;-59
2021/08/18 13:02:06;;;;;;;;;5.00;5.00;;;;;30.16;24.73;98599.97;6156448;28;97532;-60
2021/08/18 13:05:11;;;;;;;;;8.00;5.00;;;;;30.13;24.95;98588.41;6165939;28;98454;-58
2021/08/18 13:08:16;;;;;;;;;8.00;6.50;;;;;30.20;25.04;98581.41;6158032;28;97479;-59
2021/08/18 13:11:19;;;;;;;;;8.00;8.00;;;;;30.17;25.27;98587.69;6164372;28;96692;-59
2021/08/18 13:14:24;;;;;;;;;6.60;5.40;;;;;30.28;25.58;98578.44;6160711;28;97386;-60
2021/08/18 13:17:27;;;;;;;;;5.00;5.00;;;;;30.28;24.88;98592.34;6159001;28;97406;-58
2021/08/18 13:20:31;;;;;;;;;5.00;4.20;;;;;30.42;24.83;98581.59;6159646;28;97527;-60
2021/08/18 13:23:34;;;;;;;;;4.00;4.00;;;;;30.21;25.30;98586.59;6163362;28;96620;-60
2021/08/18 13:26:40;;;;;;;;;7.00;6.40;;;;;29.99;24.77;98590.81;6156600;28;97382;-58
2021/08/18 13:29:45;;;;;;;;;5.00;5.00;;;;;29.57;24.74;98584.84;6137124;28;97536;-59
2021/08/18 13:32:48;;;;;;;;;4.00;4.00;;;;;29.63;24.90;98588.19;6155092;28;97761;-58
2021/08/18 13:35:52;;;;;;;;;4.00;4.00;;;;;29.38;24.52;98578.34;6158611;28;97718;-59
2021/08/18 13:38:57;;;;;;;;;5.00;4.00;;;;;29.25;24.60;98574.78;6157812;28;99012;-60
2021/08/18 13:42:01;;;;;;;;;4.00;4.00;;;;;29.43;24.99;98575.31;6165790;28;97433;-59
2021/08/18 13:45:07;;;;;;;;;5.60;4.60;;;;;29.53;26.04;98578.41;6160250;28;96578;-59
2021/08/18 13:48:10;;;;;;;;;5.40;5.00;;;;;29.59;25.86;98579.75;6160772;28;97546;-59
2021/08/18 13:51:13;;;;;;;;;5.00;4.00;;;;;29.63;26.38;98574.28;6159159;28;96898;-59
2021/08/18 13:54:18;;;;;;;;;7.50;7.50;;;;;29.69;26.02;98568.13;6161052;28;96654;-59
2021/08/18 13:57:23;;;;;;;;;5.00;4.60;;;;;29.85;25.84;98564.59;6157872;28;96891;-59
2021/08/18 14:00:29;;;;;;;;;7.60;5.60;;;;;29.84;26.16;98566.56;6154979;28;96777;-59
2021/08/18 14:03:33;;;;;;;;;6.00;6.00;;;;;29.69;25.56;98565.34;6164172;28;97177;-58
2021/08/18 14:06:36;;;;;;;;;4.00;4.00;;;;;29.57;25.57;98570.97;6161434;28;97480;-60
2021/08/18 14:09:39;;;;;;;;;5.20;4.80;;;;;29.59;25.82;98570.63;6163773;28;97615;-60
2021/08/18 14:12:43;;;;;;;;;7.00;6.00;;;;;29.45;26.29;98573.00;6145861;28;97243;-59
2021/08/18 14:15:47;;;;;;;;;7.00;7.00;;;;;29.46;26.10;98566.28;6155828;28;97422;-58
2021/08/18 14:18:52;;;;;;;;;5.00;5.00;;;;;29.36;25.75;98572.34;6155383;28;96588;-59
2021/08/18 14:21:55;;;;;;;;;4.00;4.00;;;;;29.37;26.33;98569.19;6164423;28;96718;-58
2021/08/18 14:24:58;;;;;;;;;6.25;4.00;;;;;29.27;26.66;98573.25;6146635;28;98480;-60
2021/08/18 14:28:01;;;;;;;;;5.00;4.20;;;;;29.23;26.91;98569.56;6164154;28;97135;-60
2021/08/18 14:31:06;;;;;;;;;7.60;6.00;;;;;29.03;26.62;98573.31;6164641;28;96630;-60
2021/08/18 14:34:11;;;;;;;;;5.60;5.00;;;;;28.85;27.31;98549.78;6164168;28;97606;-59
2021/08/18 14:37:14;;;;;;;;;5.00;4.80;;;;;29.02;26.79;98570.91;6164798;28;96591;-59
2021/08/18 14:40:17;;;;;;;;;5.00;4.20;;;;;28.75;26.63;98578.00;6164233;28;98801;-60
2021/08/18 14:43:21;;;;;;;;;5.60;4.60;;;;;28.66;27.05;98568.97;6164547;28;97477;-59
2021/08/18 14:46:26;;;;;;;;;6.00;6.00;;;;;28.62;26.73;98576.38;6157012;28;97587;-59
2021/08/18 14:49:29;;;;;;;;;6.25;5.00;;;;;28.40;27.06;98572.09;6139948;28;97585;-59
2021/08/18 14:52:33;;;;;;;;;8.00;6.40;;;;;28.18;27.86;98573.38;6139569;28;97359;-59
2021/08/18 14:55:37;;;;;;;;;5.80;5.00;;;;;28.05;27.90;98565.34;6138926;28;96689;-59
2021/08/18 14:58:40;;;;;;;;;4.33;4.00;;;;;27.86;28.55;98563.09;6140789;28;97456;-59
2021/08/18 15:01:45;;;;;;;;;5.00;5.00;;;;;27.83;28.69;98570.16;6140303;28;96893;-58
2021/08/18 15:04:49;;;;;;;;;4.00;4.00;;;;;27.53;28.11;98576.97;6139753;28;97120;-58
2021/08/18 15:07:52;;;;;;;;;4.75;4.00;;;;;27.39;28.44;98565.34;6139492;28;96785;-60
2021/08/18 15:10:56;;;;;;;;;6.25;6.00;;;;;27.38;27.93;98572.03;6139423;28;97288;-60
2021/08/18 15:13:59;;;;;;;;;5.00;5.00;;;;;27.39;27.29;98563.41;6139534;28;97075;-59
2021/08/18 15:17:04;;;;;;;;;5.00;4.20;;;;;27.29;26.87;98563.81;6139880;28;97290;-58
2021/08/18 15:20:09;;;;;;;;;4.00;4.00;;;;;27.37;27.67;98565.69;6133049;28;96529;-59
2021/08/18 15:23:12;;;;;;;;;6.00;6.00;;;;;27.33;28.26;98558.41;6138965;28;96783;-60
2021/08/18 15:26:16;;;;;;;;;5.00;5.00;;;;;27.30;27.84;98567.41;6138969;28;96885;-59
2021/08/18 15:29:19;;;;;;;;;4.00;3.25;;;;;27.19;28.63;98547.63;6138427;28;97179;-59